Kelly USA, Texas
Current Conditions -  °F | °C
As of 5:58 PM on Monday 24 Nov 2014 (Local Time) from KSKF Reporting Station
Clear Clear  
Wind Chill: 55°   Ceiling: Unl
Heat Index: 55°   Visibility: 10mi
Dew Point: 32°   Wind: 6mph
Humidity: 43%   Direction: 20°NNE
Pressure: 30.06"   Gusts: NA
Location:  29.3853°N, 98.6099°W
Report Text: KSKF 242358Z AUTO 02005KT 10SM CLR 13/00 A3006 RMK AO2 SLP179 T01250001 10184 20125 53014 $
Loading
Personal Weather Stations






























Interactive Weather Map New forecast layout! Learn more

10-Day Weather Forecast

Advertisements
Track Severe Weather on mobile